Time;durP1;ratioP1;P1;durP2;ratioP2;P2;SDS_P1;SDS_P2;PMS_P1;PMS_P2;Temp;Humidity;BMP_temperature;BMP_pressure;BME280_temperature;BME280_humidity;BME280_pressure;Samples;Min_cycle;Max_cycle;Signal;HPM_P1;HPM_P2
2022/05/29 00:00:27;;;;;;;;;;;;;;;;;;5065096;28;19925;-80
2022/05/29 00:02:53;;;;;;;;;;;;;;;;;;5085108;28;19948;-80
2022/05/29 00:05:19;;;;;;;;;;;;;;;;;;5062340;28;19928;-80
2022/05/29 00:07:45;;;;;;;;;;;;;;;;;;5082144;28;20005;-80
2022/05/29 00:10:11;;;;;;;;;;;;;;;;;;5079866;28;19942;-80
2022/05/29 00:12:39;;;;;;;;;;;;;;;;;;5073927;28;19955;-82
2022/05/29 00:15:04;;;;;;;;;;;;;;;;;;5080848;28;20389;-79
2022/05/29 00:17:30;;;;;;;;;;;;;;;;;;5096633;28;19960;-80
2022/05/29 00:19:56;;;;;;;;;;;;;;;;;;5090879;28;19924;-80
2022/05/29 00:22:23;;;;;;;;;;;;;;;;;;5082827;28;20256;-80
2022/05/29 00:24:49;;;;;;;;;;;;;;;;;;5087018;28;20015;-80
2022/05/29 00:27:16;;;;;;;;;;;;;;;;;;5100822;28;20054;-80
2022/05/29 00:29:42;;;;;;;;;;;;;;;;;;5079647;28;19989;-80
2022/05/29 00:32:08;;;;;;;;;;;;;;;;;;5081971;28;19982;-79
2022/05/29 00:34:34;;;;;;;;;;;;;;;;;;5088517;28;19946;-79
2022/05/29 00:37:00;;;;;;;;;;;;;;;;;;5094120;28;19932;-79
2022/05/29 00:39:26;;;;;;;;;;;;;;;;;;5074999;28;20264;-79
2022/05/29 00:41:52;;;;;;;;;;;;;;;;;;5064417;28;19974;-80
2022/05/29 00:44:18;;;;;;;;;;;;;;;;;;5068168;28;20378;-81
2022/05/29 00:46:44;;;;;;;;;;;;;;;;;;5065559;28;19978;-81
2022/05/29 00:49:10;;;;;;;;;;;;;;;;;;5079257;28;19925;-80
2022/05/29 00:51:36;;;;;;;;;;;;;;;;;;5077378;28;19931;-80
2022/05/29 00:54:02;;;;;;;;;;;;;;;;;;5077472;27;19924;-79
2022/05/29 00:56:28;;;;;;;;;;;;;;;;;;5107420;28;19923;-79
2022/05/29 00:58:54;;;;;;;;;;;;;;;;;;5101070;28;19974;-80
2022/05/29 01:01:20;;;;;;;;;;;;;;;;;;5094688;27;19967;-80
2022/05/29 01:03:46;;;;;;;;;;;;;;;;;;5094203;28;19939;-80
2022/05/29 01:06:12;;;;;;;;;;;;;;;;;;5077020;28;20420;-79
2022/05/29 01:08:38;;;;;;;;;;;;;;;;;;5100213;27;20347;-79
2022/05/29 01:11:04;;;;;;;;;;;;;;;;;;5098891;27;20057;-80
2022/05/29 01:13:30;;;;;;;;;;;;;;;;;;5101424;27;20016;-80
2022/05/29 01:15:56;;;;;;;;;;;;;;;;;;5098682;27;19932;-80
2022/05/29 01:18:22;;;;;;;;;;;;;;;;;;5094518;28;20291;-80
2022/05/29 01:20:48;;;;;;;;;;;;;;;;;;5069792;28;20282;-80
2022/05/29 01:23:14;;;;;;;;;;;;;;;;;;5102222;27;19975;-80
2022/05/29 01:25:40;;;;;;;;;;;;;;;;;;5103432;27;19923;-80
2022/05/29 01:28:06;;;;;;;;;;;;;;;;;;5087459;27;20359;-79
2022/05/29 01:30:32;;;;;;;;;;;;;;;;;;5095910;27;20386;-80
2022/05/29 01:32:58;;;;;;;;;;;;;;;;;;5110281;27;20334;-80
2022/05/29 01:35:24;;;;;;;;;;;;;;;;;;5110459;28;20248;-80
2022/05/29 01:37:50;;;;;;;;;;;;;;;;;;5093986;28;20336;-80
2022/05/29 01:40:15;;;;;;;;;;;;;;;;;;5111891;27;20416;-79
2022/05/29 01:42:41;;;;;;;;;;;;;;;;;;5091644;28;19928;-79
2022/05/29 01:45:07;;;;;;;;;;;;;;;;;;5089741;28;20375;-79
2022/05/29 01:47:33;;;;;;;;;;;;;;;;;;5112186;27;20351;-80
2022/05/29 01:49:59;;;;;;;;;;;;;;;;;;5095074;28;19977;-79
2022/05/29 01:52:25;;;;;;;;;;;;;;;;;;5085220;28;20439;-78
2022/05/29 01:54:51;;;;;;;;;;;;;;;;;;5091707;28;20355;-79
2022/05/29 01:57:17;;;;;;;;;;;;;;;;;;5085266;28;19931;-79
2022/05/29 01:59:43;;;;;;;;;;;;;;;;;;5093554;27;19924;-80
2022/05/29 02:02:09;;;;;;;;;;;;;;;;;;5118940;27;20083;-79
2022/05/29 02:04:35;;;;;;;;;;;;;;;;;;5104546;27;19934;-79
2022/05/29 02:09:46;;;;;;;;;;;;;;;;;;5098797;28;19970;-79
2022/05/29 02:12:12;;;;;;;;;;;;;;;;;;5112370;27;20758;-79
2022/05/29 02:14:38;;;;;;;;;;;;;;;;;;5092699;27;19976;-79
2022/05/29 02:17:04;;;;;;;;;;;;;;;;;;5095384;28;20022;-79
2022/05/29 02:19:32;;;;;;;;;;;;;;;;;;5092337;28;20006;-79
2022/05/29 02:21:58;;;;;;;;;;;;;;;;;;5111107;28;19988;-79
2022/05/29 02:24:24;;;;;;;;;;;;;;;;;;5101809;28;20362;-79
2022/05/29 02:26:50;;;;;;;;;;;;;;;;;;5103716;28;20358;-79
2022/05/29 02:29:16;;;;;;;;;;;;;;;;;;5085592;28;20355;-79
2022/05/29 02:31:42;;;;;;;;;;;;;;;;;;5094207;27;20255;-79
2022/05/29 02:34:08;;;;;;;;;;;;;;;;;;5129053;27;20313;-79
2022/05/29 02:36:34;;;;;;;;;;;;;;;;;;5095273;28;20001;-80
2022/05/29 02:39:00;;;;;;;;;;;;;;;;;;5095751;28;19924;-80
2022/05/29 02:41:26;;;;;;;;;;;;;;;;;;5108910;27;19928;-80
2022/05/29 02:43:52;;;;;;;;;;;;;;;;;;5108184;27;19930;-80
2022/05/29 02:46:18;;;;;;;;;;;;;;;;;;5096787;27;19971;-80
2022/05/29 02:48:44;;;;;;;;;;;;;;;;;;5077017;28;19924;-80
2022/05/29 02:51:10;;;;;;;;;;;;;;;;;;5102498;28;20291;-79
2022/05/29 02:53:36;;;;;;;;;;;;;;;;;;5109737;28;19928;-79
2022/05/29 02:56:02;;;;;;;;;;;;;;;;;;5086496;28;20058;-80
2022/05/29 02:58:28;;;;;;;;;;;;;;;;;;5092981;28;19924;-79
2022/05/29 03:00:54;;;;;;;;;;;;;;;;;;5098206;28;19928;-79
2022/05/29 03:03:20;;;;;;;;;;;;;;;;;;5098238;28;20406;-79
2022/05/29 03:05:46;;;;;;;;;;;;;;;;;;5094774;28;20019;-80
2022/05/29 03:08:12;;;;;;;;;;;;;;;;;;5089727;28;20039;-80
2022/05/29 03:10:38;;;;;;;;;;;;;;;;;;5089697;28;19970;-80
2022/05/29 03:13:04;;;;;;;;;;;;;;;;;;5092580;28;19932;-80
2022/05/29 03:15:30;;;;;;;;;;;;;;;;;;5072898;28;19970;-80
2022/05/29 03:17:56;;;;;;;;;;;;;;;;;;5084922;28;20037;-79
2022/05/29 03:20:22;;;;;;;;;;;;;;;;;;5090304;28;19930;-79
2022/05/29 03:22:48;;;;;;;;;;;;;;;;;;5099562;28;19962;-80
2022/05/29 03:25:14;;;;;;;;;;;;;;;;;;5105494;28;19928;-80
2022/05/29 03:27:40;;;;;;;;;;;;;;;;;;5089816;28;19950;-80
2022/05/29 03:30:06;;;;;;;;;;;;;;;;;;5098195;28;19966;-80
2022/05/29 03:32:32;;;;;;;;;;;;;;;;;;5104176;28;19924;-80
2022/05/29 03:34:58;;;;;;;;;;;;;;;;;;5087182;28;19928;-81
2022/05/29 03:37:24;;;;;;;;;;;;;;;;;;5113807;27;19981;-79
2022/05/29 03:39:50;;;;;;;;;;;;;;;;;;5095982;28;19928;-80
2022/05/29 03:42:16;;;;;;;;;;;;;;;;;;5095667;28;19928;-79
2022/05/29 03:44:42;;;;;;;;;;;;;;;;;;5107523;28;19927;-79
2022/05/29 03:47:08;;;;;;;;;;;;;;;;;;5098368;28;19924;-80
2022/05/29 03:49:34;;;;;;;;;;;;;;;;;;5077944;28;19924;-79
2022/05/29 03:52:01;;;;;;;;;;;;;;;;;;5093739;28;19958;-80
2022/05/29 03:54:27;;;;;;;;;;;;;;;;;;5091192;28;20011;-79
2022/05/29 03:56:53;;;;;;;;;;;;;;;;;;5088852;28;20026;-79
2022/05/29 03:59:19;;;;;;;;;;;;;;;;;;5077365;28;19924;-79
2022/05/29 04:01:45;;;;;;;;;;;;;;;;;;5075978;28;19924;-81
2022/05/29 04:04:11;;;;;;;;;;;;;;;;;;5097090;28;19924;-80
2022/05/29 04:06:40;;;;;;;;;;;;;;;;;;5085303;28;19924;-79
2022/05/29 04:12:07;;;;;;;;;;;;;;;;;;5089429;28;19951;-80
2022/05/29 04:14:33;;;;;;;;;;;;;;;;;;5083077;28;19931;-80
2022/05/29 04:16:59;;;;;;;;;;;;;;;;;;5074448;28;19923;-80
2022/05/29 04:19:25;;;;;;;;;;;;;;;;;;5082555;28;20011;-80
2022/05/29 04:21:51;;;;;;;;;;;;;;;;;;5058246;28;19950;-80
2022/05/29 04:24:19;;;;;;;;;;;;;;;;;;5087791;28;19931;-80
2022/05/29 04:26:45;;;;;;;;;;;;;;;;;;5080121;28;19924;-81
2022/05/29 04:29:11;;;;;;;;;;;;;;;;;;5100754;28;20290;-81
2022/05/29 04:31:37;;;;;;;;;;;;;;;;;;5089646;28;19928;-80
2022/05/29 04:34:03;;;;;;;;;;;;;;;;;;5099741;28;19924;-80
2022/05/29 04:36:29;;;;;;;;;;;;;;;;;;5067709;28;19932;-80
2022/05/29 04:38:55;;;;;;;;;;;;;;;;;;5077948;28;19924;-79
2022/05/29 04:41:25;;;;;;;;;;;;;;;;;;5058731;28;20068;-80
2022/05/29 04:43:51;;;;;;;;;;;;;;;;;;5086775;28;19932;-80
2022/05/29 04:46:17;;;;;;;;;;;;;;;;;;5073645;28;20439;-80
2022/05/29 04:48:43;;;;;;;;;;;;;;;;;;5105465;28;20015;-79
2022/05/29 04:51:09;;;;;;;;;;;;;;;;;;5095958;28;20367;-79
2022/05/29 04:53:36;;;;;;;;;;;;;;;;;;5096917;28;20191;-79
2022/05/29 04:56:02;;;;;;;;;;;;;;;;;;5096444;28;20282;-79
2022/05/29 04:58:28;;;;;;;;;;;;;;;;;;5108187;28;19932;-79
2022/05/29 05:00:54;;;;;;;;;;;;;;;;;;5096253;28;19931;-80
2022/05/29 05:03:20;;;;;;;;;;;;;;;;;;5076501;28;20322;-82
2022/05/29 05:05:47;;;;;;;;;;;;;;;;;;5114971;27;20385;-80
2022/05/29 05:08:12;;;;;;;;;;;;;;;;;;5074434;28;19931;-80
2022/05/29 05:10:38;;;;;;;;;;;;;;;;;;5093749;28;19928;-80
2022/05/29 05:13:04;;;;;;;;;;;;;;;;;;5092140;28;20355;-80
2022/05/29 05:15:30;;;;;;;;;;;;;;;;;;5089860;28;20351;-81
2022/05/29 05:17:56;;;;;;;;;;;;;;;;;;5099923;28;19958;-79
2022/05/29 05:20:22;;;;;;;;;;;;;;;;;;5087572;28;19974;-80
2022/05/29 05:22:48;;;;;;;;;;;;;;;;;;5096697;28;20048;-80
2022/05/29 05:25:14;;;;;;;;;;;;;;;;;;5075113;28;20010;-80
2022/05/29 05:27:40;;;;;;;;;;;;;;;;;;5088791;28;20371;-80
2022/05/29 05:30:06;;;;;;;;;;;;;;;;;;5084776;28;20390;-81
2022/05/29 05:32:32;;;;;;;;;;;;;;;;;;5071383;28;20377;-80
2022/05/29 05:35:02;;;;;;;;;;;;;;;;;;5079904;28;19924;-80
2022/05/29 05:37:28;;;;;;;;;;;;;;;;;;5090014;28;19932;-80
2022/05/29 05:39:54;;;;;;;;;;;;;;;;;;5076011;28;19949;-80
2022/05/29 05:42:20;;;;;;;;;;;;;;;;;;5097949;28;20066;-81
2022/05/29 05:44:48;;;;;;;;;;;;;;;;;;5082526;28;19929;-80
2022/05/29 05:47:13;;;;;;;;;;;;;;;;;;5083319;28;19948;-80
2022/05/29 05:49:39;;;;;;;;;;;;;;;;;;5084196;28;20315;-80
2022/05/29 05:52:05;;;;;;;;;;;;;;;;;;5080532;28;19927;-80
2022/05/29 05:54:31;;;;;;;;;;;;;;;;;;5088091;28;19924;-79
2022/05/29 05:56:57;;;;;;;;;;;;;;;;;;5084300;28;20024;-80
2022/05/29 05:59:23;;;;;;;;;;;;;;;;;;5079219;28;19924;-80
2022/05/29 06:01:49;;;;;;;;;;;;;;;;;;5083253;28;19924;-80
2022/05/29 06:04:15;;;;;;;;;;;;;;;;;;5079293;28;19924;-80
2022/05/29 06:06:41;;;;;;;;;;;;;;;;;;5094632;28;20029;-78
2022/05/29 06:09:07;;;;;;;;;;;;;;;;;;5097133;28;20419;-80
2022/05/29 06:11:33;;;;;;;;;;;;;;;;;;5074824;28;20027;-79
2022/05/29 06:13:59;;;;;;;;;;;;;;;;;;5103595;28;20033;-81
2022/05/29 06:16:25;;;;;;;;;;;;;;;;;;5088456;28;20042;-80
2022/05/29 06:18:51;;;;;;;;;;;;;;;;;;5086343;28;19932;-79
2022/05/29 06:21:17;;;;;;;;;;;;;;;;;;5090594;28;20389;-79
2022/05/29 06:23:43;;;;;;;;;;;;;;;;;;5072879;28;19930;-80
2022/05/29 06:26:10;;;;;;;;;;;;;;;;;;5075774;28;19925;-79
2022/05/29 06:28:36;;;;;;;;;;;;;;;;;;5089210;28;19927;-79
2022/05/29 06:31:02;;;;;;;;;;;;;;;;;;5078473;28;20255;-79
2022/05/29 06:33:29;;;;;;;;;;;;;;;;;;5089210;28;20375;-80
2022/05/29 06:35:55;;;;;;;;;;;;;;;;;;5074853;28;20041;-81
2022/05/29 06:38:21;;;;;;;;;;;;;;;;;;5090792;28;19975;-79
2022/05/29 06:40:49;;;;;;;;;;;;;;;;;;5097568;28;20239;-80
2022/05/29 06:43:15;;;;;;;;;;;;;;;;;;5083465;28;20360;-80
2022/05/29 06:45:41;;;;;;;;;;;;;;;;;;5084410;28;19932;-79
2022/05/29 06:48:07;;;;;;;;;;;;;;;;;;5088377;28;19967;-82
2022/05/29 06:50:33;;;;;;;;;;;;;;;;;;5117559;27;19935;-80
2022/05/29 06:52:59;;;;;;;;;;;;;;;;;;5101826;28;20355;-80
2022/05/29 06:55:25;;;;;;;;;;;;;;;;;;5074436;28;20352;-80
2022/05/29 06:57:52;;;;;;;;;;;;;;;;;;5086437;28;20755;-80
2022/05/29 07:08:32;;;;;;;;;;;;;;;;;;5090487;28;19949;-83
2022/05/29 07:10:58;;;;;;;;;;;;;;;;;;5106492;28;19924;-80
2022/05/29 07:13:24;;;;;;;;;;;;;;;;;;5096945;28;19924;-80
2022/05/29 07:15:50;;;;;;;;;;;;;;;;;;5092830;28;19924;-81
2022/05/29 07:18:16;;;;;;;;;;;;;;;;;;5058844;28;19936;-80
2022/05/29 07:20:42;;;;;;;;;;;;;;;;;;5086471;28;19985;-81
2022/05/29 07:23:08;;;;;;;;;;;;;;;;;;5086870;28;19924;-81
2022/05/29 07:25:33;;;;;;;;;;;;;;;;;;5093914;28;19924;-84
2022/05/29 07:27:59;;;;;;;;;;;;;;;;;;5094960;28;19924;-81
2022/05/29 07:30:25;;;;;;;;;;;;;;;;;;5095526;28;20066;-81
2022/05/29 07:32:51;;;;;;;;;;;;;;;;;;5086641;28;20058;-84
2022/05/29 07:35:17;;;;;;;;;;;;;;;;;;5098324;28;19977;-80
2022/05/29 07:37:43;;;;;;;;;;;;;;;;;;5095889;28;19924;-83
2022/05/29 07:40:09;;;;;;;;;;;;;;;;;;5092266;28;19947;-79
2022/05/29 07:45:20;;;;;;;;;;;;;;;;;;5097238;28;20376;-81
2022/05/29 07:47:46;;;;;;;;;;;;;;;;;;5095653;28;19941;-81
2022/05/29 07:50:12;;;;;;;;;;;;;;;;;;5099608;28;20064;-81
2022/05/29 07:52:38;;;;;;;;;;;;;;;;;;5096549;28;19928;-81
2022/05/29 07:55:04;;;;;;;;;;;;;;;;;;5096627;28;19928;-81
2022/05/29 07:57:30;;;;;;;;;;;;;;;;;;5077429;28;19924;-81
2022/05/29 07:59:56;;;;;;;;;;;;;;;;;;5092655;28;19927;-81
2022/05/29 08:02:22;;;;;;;;;;;;;;;;;;5098651;28;19930;-81
2022/05/29 08:04:48;;;;;;;;;;;;;;;;;;5096387;28;19939;-82
2022/05/29 08:07:14;;;;;;;;;;;;;;;;;;5092093;28;19924;-81
2022/05/29 08:09:40;;;;;;;;;;;;;;;;;;5088712;28;20018;-83
2022/05/29 08:12:06;;;;;;;;;;;;;;;;;;5094354;28;19928;-81
2022/05/29 08:14:32;;;;;;;;;;;;;;;;;;5074086;28;19924;-83
2022/05/29 08:16:58;;;;;;;;;;;;;;;;;;5093474;28;19949;-81
2022/05/29 08:19:24;;;;;;;;;;;;;;;;;;5090991;28;19924;-81
2022/05/29 08:21:50;;;;;;;;;;;;;;;;;;5071293;28;19939;-80
2022/05/29 08:32:30;;;;;;;;;;;;;;;;;;5086290;28;20387;-76
2022/05/29 08:34:56;;;;;;;;;;;;;;;;;;5066772;28;19925;-82
2022/05/29 08:37:22;;;;;;;;;;;;;;;;;;5063826;28;20027;-79
2022/05/29 08:39:48;;;;;;;;;;;;;;;;;;5084727;28;19924;-79
2022/05/29 08:42:14;;;;;;;;;;;;;;;;;;5115662;27;19973;-80
2022/05/29 08:44:41;;;;;;;;;;;;;;;;;;5096391;28;20366;-81
2022/05/29 08:47:08;;;;;;;;;;;;;;;;;;5095665;28;19932;-86
2022/05/29 08:49:33;;;;;;;;;;;;;;;;;;5092660;28;19925;-80
2022/05/29 08:52:00;;;;;;;;;;;;;;;;;;5100844;28;19928;-81
2022/05/29 08:54:26;;;;;;;;;;;;;;;;;;5072839;28;19924;-78
2022/05/29 08:56:52;;;;;;;;;;;;;;;;;;5091476;28;19989;-77
2022/05/29 08:59:17;;;;;;;;;;;;;;;;;;5089179;28;19928;-78
2022/05/29 09:01:43;;;;;;;;;;;;;;;;;;5091258;28;19928;-84
2022/05/29 09:04:10;;;;;;;;;;;;;;;;;;5088824;28;19939;-79
2022/05/29 09:06:35;;;;;;;;;;;;;;;;;;5075270;28;19928;-84
2022/05/29 09:09:02;;;;;;;;;;;;;;;;;;5072213;28;19924;-83
2022/05/29 09:11:27;;;;;;;;;;;;;;;;;;5069096;28;19924;-83
2022/05/29 09:13:53;;;;;;;;;;;;;;;;;;5089663;28;19924;-85
2022/05/29 09:16:20;;;;;;;;;;;;;;;;;;5087535;28;19935;-85
2022/05/29 09:18:46;;;;;;;;;;;;;;;;;;5104954;28;20366;-80
2022/05/29 09:21:12;;;;;;;;;;;;;;;;;;5091766;28;19930;-82
2022/05/29 09:23:38;;;;;;;;;;;;;;;;;;5095148;28;19934;-83
2022/05/29 09:26:04;;;;;;;;;;;;;;;;;;5078787;28;19927;-80
2022/05/29 09:28:30;;;;;;;;;;;;;;;;;;5091815;28;20363;-80
2022/05/29 09:30:56;;;;;;;;;;;;;;;;;;5097490;28;19974;-81
2022/05/29 09:33:25;;;;;;;;;;;;;;;;;;5083493;28;19939;-82
2022/05/29 09:35:54;;;;;;;;;;;;;;;;;;5081723;28;20256;-86
2022/05/29 09:38:20;;;;;;;;;;;;;;;;;;5080429;28;20009;-89
2022/05/29 09:40:46;;;;;;;;;;;;;;;;;;5081602;28;19955;-93
2022/05/29 09:43:12;;;;;;;;;;;;;;;;;;5086972;28;19924;-86
2022/05/29 09:45:38;;;;;;;;;;;;;;;;;;5069604;28;20282;-87
2022/05/29 09:51:01;;;;;;;;;;;;;;;;;;5084999;28;20332;-86
2022/05/29 09:53:27;;;;;;;;;;;;;;;;;;5094564;28;20394;-84
2022/05/29 09:55:53;;;;;;;;;;;;;;;;;;5071081;28;19924;-83
2022/05/29 09:58:19;;;;;;;;;;;;;;;;;;5069986;28;19979;-83
2022/05/29 10:00:46;;;;;;;;;;;;;;;;;;5086311;28;20401;-85
2022/05/29 10:03:14;;;;;;;;;;;;;;;;;;5072290;28;19924;-84
2022/05/29 10:05:40;;;;;;;;;;;;;;;;;;5070212;28;19970;-81
2022/05/29 10:08:06;;;;;;;;;;;;;;;;;;5086431;28;19982;-81
2022/05/29 10:10:32;;;;;;;;;;;;;;;;;;5071922;28;19999;-80
2022/05/29 10:12:58;;;;;;;;;;;;;;;;;;5070070;28;19949;-80
2022/05/29 10:15:24;;;;;;;;;;;;;;;;;;5087199;28;19962;-80
2022/05/29 10:17:50;;;;;;;;;;;;;;;;;;5071053;28;19924;-80
2022/05/29 10:20:16;;;;;;;;;;;;;;;;;;5088188;28;19931;-83
2022/05/29 10:22:44;;;;;;;;;;;;;;;;;;5089625;28;19931;-86
2022/05/29 10:25:10;;;;;;;;;;;;;;;;;;5071954;28;19924;-83
2022/05/29 10:27:36;;;;;;;;;;;;;;;;;;5069646;28;20011;-82
2022/05/29 10:30:02;;;;;;;;;;;;;;;;;;5078628;28;20068;-83
2022/05/29 10:32:28;;;;;;;;;;;;;;;;;;5067560;28;20006;-86
2022/05/29 10:34:55;;;;;;;;;;;;;;;;;;5067652;28;19924;-86
2022/05/29 10:37:24;;;;;;;;;;;;;;;;;;5071221;28;19978;-86
2022/05/29 10:39:50;;;;;;;;;;;;;;;;;;5070083;28;19926;-79
2022/05/29 10:42:15;;;;;;;;;;;;;;;;;;5085307;28;20388;-77
2022/05/29 10:44:41;;;;;;;;;;;;;;;;;;5070653;28;19975;-81
2022/05/29 10:47:08;;;;;;;;;;;;;;;;;;5069584;28;19931;-80
2022/05/29 10:49:34;;;;;;;;;;;;;;;;;;5088796;28;19928;-84
2022/05/29 10:52:00;;;;;;;;;;;;;;;;;;5090747;28;19924;-82
2022/05/29 10:54:26;;;;;;;;;;;;;;;;;;5068607;28;19950;-81
2022/05/29 10:56:53;;;;;;;;;;;;;;;;;;5087655;28;20398;-85
2022/05/29 10:59:19;;;;;;;;;;;;;;;;;;5089586;28;19923;-84
2022/05/29 11:04:30;;;;;;;;;;;;;;;;;;5089530;28;19928;-83
2022/05/29 11:06:56;;;;;;;;;;;;;;;;;;5072069;28;19933;-83
2022/05/29 11:09:22;;;;;;;;;;;;;;;;;;5089279;28;19990;-84
2022/05/29 11:11:48;;;;;;;;;;;;;;;;;;5078666;28;20007;-83
2022/05/29 11:14:14;;;;;;;;;;;;;;;;;;5073389;28;19924;-83
2022/05/29 11:16:40;;;;;;;;;;;;;;;;;;5089482;28;19924;-82
2022/05/29 11:19:06;;;;;;;;;;;;;;;;;;5088619;28;19928;-82
2022/05/29 11:21:32;;;;;;;;;;;;;;;;;;5071528;28;20003;-83
2022/05/29 11:23:58;;;;;;;;;;;;;;;;;;5072433;28;20355;-83
2022/05/29 11:26:24;;;;;;;;;;;;;;;;;;5072433;28;19966;-84
2022/05/29 11:28:50;;;;;;;;;;;;;;;;;;5073404;28;20038;-85
2022/05/29 11:31:16;;;;;;;;;;;;;;;;;;5070610;28;20020;-82
2022/05/29 11:33:42;;;;;;;;;;;;;;;;;;5067200;28;20010;-83
2022/05/29 11:36:08;;;;;;;;;;;;;;;;;;5070363;28;19935;-83
2022/05/29 11:38:34;;;;;;;;;;;;;;;;;;5070724;28;19973;-81
2022/05/29 11:41:00;;;;;;;;;;;;;;;;;;5088364;28;20295;-84
2022/05/29 11:43:26;;;;;;;;;;;;;;;;;;5085015;28;19932;-82
2022/05/29 11:51:22;;;;;;;;;;;;;;;;;;5088660;28;19924;-87
2022/05/29 11:53:59;;;;;;;;;;;;;;;;;;5086292;28;19935;-88
2022/05/29 11:56:25;;;;;;;;;;;;;;;;;;5072349;28;20248;-87
2022/05/29 11:58:51;;;;;;;;;;;;;;;;;;5089262;28;20042;-85
2022/05/29 12:01:18;;;;;;;;;;;;;;;;;;5090570;28;19924;-86
2022/05/29 12:03:44;;;;;;;;;;;;;;;;;;5092340;28;19969;-85
2022/05/29 12:06:09;;;;;;;;;;;;;;;;;;5072845;28;19942;-86
2022/05/29 12:08:36;;;;;;;;;;;;;;;;;;5108399;28;19931;-87
2022/05/29 12:11:02;;;;;;;;;;;;;;;;;;5076692;28;19932;-90
2022/05/29 12:13:28;;;;;;;;;;;;;;;;;;5092951;28;19928;-85
2022/05/29 12:15:54;;;;;;;;;;;;;;;;;;5077279;28;19931;-87
2022/05/29 12:18:20;;;;;;;;;;;;;;;;;;5078693;28;20419;-83
2022/05/29 12:20:46;;;;;;;;;;;;;;;;;;5078330;28;19974;-85
2022/05/29 12:23:12;;;;;;;;;;;;;;;;;;5088109;28;19932;-88
2022/05/29 12:25:38;;;;;;;;;;;;;;;;;;5074029;28;19924;-83
2022/05/29 12:28:04;;;;;;;;;;;;;;;;;;5076454;28;20399;-85
2022/05/29 12:30:32;;;;;;;;;;;;;;;;;;5076045;28;20416;-84
2022/05/29 12:32:58;;;;;;;;;;;;;;;;;;5091115;28;19924;-85
2022/05/29 12:35:24;;;;;;;;;;;;;;;;;;5073675;28;20383;-89
2022/05/29 12:37:50;;;;;;;;;;;;;;;;;;5087894;28;19928;-85
2022/05/29 12:40:15;;;;;;;;;;;;;;;;;;5089785;28;19943;-84
2022/05/29 12:42:41;;;;;;;;;;;;;;;;;;5088042;28;19931;-86
2022/05/29 12:45:09;;;;;;;;;;;;;;;;;;5090651;28;19932;-86
2022/05/29 12:47:35;;;;;;;;;;;;;;;;;;5073078;28;19924;-86
2022/05/29 12:50:02;;;;;;;;;;;;;;;;;;5074673;28;19924;-86
2022/05/29 12:52:28;;;;;;;;;;;;;;;;;;5091024;28;19931;-82
2022/05/29 12:54:54;;;;;;;;;;;;;;;;;;5074565;28;20512;-82
2022/05/29 12:57:20;;;;;;;;;;;;;;;;;;5090119;28;20008;-76
2022/05/29 12:59:46;;;;;;;;;;;;;;;;;;5090931;28;20018;-76
2022/05/29 13:02:12;;;;;;;;;;;;;;;;;;5091589;28;19943;-78
2022/05/29 13:04:40;;;;;;;;;;;;;;;;;;5077855;28;19928;-80
2022/05/29 13:07:06;;;;;;;;;;;;;;;;;;5085103;28;20018;-78
2022/05/29 13:09:32;;;;;;;;;;;;;;;;;;5086565;28;20704;-81
2022/05/29 13:11:58;;;;;;;;;;;;;;;;;;5071759;28;19928;-81
2022/05/29 13:14:25;;;;;;;;;;;;;;;;;;5090679;28;19930;-81
2022/05/29 13:16:51;;;;;;;;;;;;;;;;;;5087927;28;19924;-81
2022/05/29 13:19:17;;;;;;;;;;;;;;;;;;5091735;28;20014;-82
2022/05/29 13:21:43;;;;;;;;;;;;;;;;;;5089269;28;19924;-82
2022/05/29 13:24:09;;;;;;;;;;;;;;;;;;5090997;28;19932;-82
2022/05/29 13:26:36;;;;;;;;;;;;;;;;;;5087650;28;19924;-82
2022/05/29 13:29:02;;;;;;;;;;;;;;;;;;5084994;28;19924;-81
2022/05/29 13:31:28;;;;;;;;;;;;;;;;;;5088908;28;19924;-82
2022/05/29 13:33:54;;;;;;;;;;;;;;;;;;5090299;28;19931;-81
2022/05/29 13:36:20;;;;;;;;;;;;;;;;;;5084611;28;19924;-81
2022/05/29 13:38:46;;;;;;;;;;;;;;;;;;5091068;28;20385;-80
2022/05/29 13:41:14;;;;;;;;;;;;;;;;;;5088165;28;20434;-81
2022/05/29 13:43:40;;;;;;;;;;;;;;;;;;5073423;28;19931;-81
2022/05/29 13:46:06;;;;;;;;;;;;;;;;;;5088226;28;19981;-81
2022/05/29 13:48:32;;;;;;;;;;;;;;;;;;5086886;28;20463;-81
2022/05/29 13:50:58;;;;;;;;;;;;;;;;;;5087602;28;20294;-81
2022/05/29 13:53:24;;;;;;;;;;;;;;;;;;5089576;28;19924;-81
2022/05/29 13:55:50;;;;;;;;;;;;;;;;;;5089682;28;20008;-81
2022/05/29 14:04:04;;;;;;;;;;;;;;;;;;5084929;28;19990;-81
2022/05/29 14:06:30;;;;;;;;;;;;;;;;;;5084225;28;20356;-81
2022/05/29 14:08:56;;;;;;;;;;;;;;;;;;5074866;28;19930;-81
2022/05/29 14:11:21;;;;;;;;;;;;;;;;;;5071274;28;20432;-81
2022/05/29 14:13:47;;;;;;;;;;;;;;;;;;5073746;28;19967;-81
2022/05/29 14:16:14;;;;;;;;;;;;;;;;;;5086290;28;19925;-81
2022/05/29 14:18:40;;;;;;;;;;;;;;;;;;5061350;28;20355;-84
2022/05/29 14:21:06;;;;;;;;;;;;;;;;;;5078207;28;19974;-84
2022/05/29 14:23:32;;;;;;;;;;;;;;;;;;5075704;28;20002;-89
2022/05/29 14:25:59;;;;;;;;;;;;;;;;;;5089721;28;19977;-88
2022/05/29 14:28:25;;;;;;;;;;;;;;;;;;5067437;28;19930;-83
2022/05/29 14:30:51;;;;;;;;;;;;;;;;;;5075755;28;19925;-83
2022/05/29 14:33:17;;;;;;;;;;;;;;;;;;5062456;28;19932;-83
2022/05/29 14:35:43;;;;;;;;;;;;;;;;;;5075072;28;19935;-83
2022/05/29 14:38:09;;;;;;;;;;;;;;;;;;5069665;28;19932;-83
2022/05/29 14:40:36;;;;;;;;;;;;;;;;;;5071473;28;19982;-83
2022/05/29 14:43:02;;;;;;;;;;;;;;;;;;5072335;28;19932;-83
2022/05/29 14:45:29;;;;;;;;;;;;;;;;;;5072608;28;19933;-82
2022/05/29 14:47:55;;;;;;;;;;;;;;;;;;5087371;28;19924;-82
2022/05/29 14:50:21;;;;;;;;;;;;;;;;;;5081748;28;19930;-83
2022/05/29 14:52:47;;;;;;;;;;;;;;;;;;5068861;28;19928;-83
2022/05/29 14:55:13;;;;;;;;;;;;;;;;;;5069438;28;20015;-84
2022/05/29 14:57:39;;;;;;;;;;;;;;;;;;5082254;28;19925;-83
2022/05/29 15:00:05;;;;;;;;;;;;;;;;;;5114623;27;19973;-80
2022/05/29 15:02:31;;;;;;;;;;;;;;;;;;5084918;28;19931;-83
2022/05/29 15:04:57;;;;;;;;;;;;;;;;;;5064519;28;19932;-84
2022/05/29 15:12:52;;;;;;;;;;;;;;;;;;5085140;28;19928;-84
2022/05/29 15:15:18;;;;;;;;;;;;;;;;;;5078039;28;19924;-85
2022/05/29 15:17:44;;;;;;;;;;;;;;;;;;5070977;28;20011;-83
2022/05/29 15:24:08;;;;;;;;;;;;;;;;;;5090040;28;20071;-81
2022/05/29 15:25:41;;;;;;;;;;;;;;;;;;5103909;28;19931;-82
2022/05/29 15:28:08;;;;;;;;;;;;;;;;;;5115745;28;20290;-82
2022/05/29 15:30:34;;;;;;;;;;;;;;;;;;5068619;28;20050;-82
2022/05/29 15:33:00;;;;;;;;;;;;;;;;;;5072798;28;20026;-89
2022/05/29 15:35:26;;;;;;;;;;;;;;;;;;5075740;28;20477;-84
2022/05/29 15:37:52;;;;;;;;;;;;;;;;;;5072750;28;19931;-77
2022/05/29 15:40:18;;;;;;;;;;;;;;;;;;5089060;28;19947;-77
2022/05/29 15:42:44;;;;;;;;;;;;;;;;;;5090933;28;19932;-82
2022/05/29 15:45:10;;;;;;;;;;;;;;;;;;5066379;28;20011;-84
2022/05/29 15:47:36;;;;;;;;;;;;;;;;;;5061139;28;19928;-78
2022/05/29 15:50:02;;;;;;;;;;;;;;;;;;5061955;28;20355;-83
2022/05/29 15:52:28;;;;;;;;;;;;;;;;;;5075736;28;19974;-80
2022/05/29 15:54:54;;;;;;;;;;;;;;;;;;5065601;28;19967;-81
2022/05/29 15:57:20;;;;;;;;;;;;;;;;;;5090944;28;20404;-81
2022/05/29 15:59:46;;;;;;;;;;;;;;;;;;5090607;28;19920;-76
2022/05/29 16:02:12;;;;;;;;;;;;;;;;;;5087211;28;19928;-77
2022/05/29 16:04:38;;;;;;;;;;;;;;;;;;5117104;27;19970;-83
2022/05/29 16:07:04;;;;;;;;;;;;;;;;;;5071772;28;19928;-77
2022/05/29 16:09:30;;;;;;;;;;;;;;;;;;5087196;28;19924;-73
2022/05/29 16:12:01;;;;;;;;;;;;;;;;;;5088296;28;19928;-74
2022/05/29 16:14:27;;;;;;;;;;;;;;;;;;5088889;28;19931;-75
2022/05/29 16:16:53;;;;;;;;;;;;;;;;;;5086962;28;20333;-74
2022/05/29 16:19:21;;;;;;;;;;;;;;;;;;5092175;28;19924;-73
2022/05/29 16:21:47;;;;;;;;;;;;;;;;;;5087723;28;20391;-74
2022/05/29 16:24:13;;;;;;;;;;;;;;;;;;5088306;28;19928;-79
2022/05/29 16:26:39;;;;;;;;;;;;;;;;;;5090326;28;19924;-75
2022/05/29 16:29:07;;;;;;;;;;;;;;;;;;5086967;28;19924;-74
2022/05/29 16:31:33;;;;;;;;;;;;;;;;;;5089158;28;19928;-76
2022/05/29 16:33:59;;;;;;;;;;;;;;;;;;5068001;28;19974;-76
2022/05/29 16:36:25;;;;;;;;;;;;;;;;;;5089119;28;19970;-77
2022/05/29 16:50:01;;;;;;;;;;;;;;;;;;5090676;28;20391;-76
2022/05/29 16:52:27;;;;;;;;;;;;;;;;;;5088729;28;19978;-77
2022/05/29 16:54:53;;;;;;;;;;;;;;;;;;5096797;28;19960;-77
2022/05/29 16:57:19;;;;;;;;;;;;;;;;;;5109168;28;19923;-76
2022/05/29 16:59:45;;;;;;;;;;;;;;;;;;5106435;28;19949;-76
2022/05/29 17:02:11;;;;;;;;;;;;;;;;;;5111990;28;19924;-77
2022/05/29 17:04:37;;;;;;;;;;;;;;;;;;5107092;27;19949;-79
2022/05/29 17:07:05;;;;;;;;;;;;;;;;;;5110912;28;19943;-77
2022/05/29 17:09:46;;;;;;;;;;;;;;;;;;5090085;28;19931;-79
2022/05/29 17:12:13;;;;;;;;;;;;;;;;;;5108395;28;19928;-78
2022/05/29 17:14:39;;;;;;;;;;;;;;;;;;5106179;28;19943;-75
2022/05/29 17:17:05;;;;;;;;;;;;;;;;;;5110540;28;19931;-79
2022/05/29 17:19:31;;;;;;;;;;;;;;;;;;5089724;28;20358;-78
2022/05/29 17:21:57;;;;;;;;;;;;;;;;;;5107670;27;19954;-78
2022/05/29 17:24:23;;;;;;;;;;;;;;;;;;5107881;27;19985;-77
2022/05/29 17:26:50;;;;;;;;;;;;;;;;;;5109000;28;19923;-78
2022/05/29 17:29:16;;;;;;;;;;;;;;;;;;5108532;28;19924;-78
2022/05/29 17:31:42;;;;;;;;;;;;;;;;;;5087789;28;19936;-78
2022/05/29 17:34:08;;;;;;;;;;;;;;;;;;5089894;28;19928;-75
2022/05/29 17:36:34;;;;;;;;;;;;;;;;;;5111083;28;19924;-84
2022/05/29 17:39:00;;;;;;;;;;;;;;;;;;5075481;28;19923;-84